LiveATC.Net - Listen to live air traffic control over the Internet! Contact LiveATC.net for advertising information


ICAO: URKK  IATA: KRR   Airport: Pashkovskiy General Airport
City: Krasnodar
Country: Russia   Continent: Europe
URKK METAR Weather: URKK 011500Z 08007MPS CAVOK 33/17 Q1007 NOSIG RMK QFE752 SC070
URKK Flight Activity (FlightAware)
URKK Gnd/Twr/App
Feed Status: UP   Listeners: 12
Listen right in your browser - requires Flash (in browser, requires Flash)
Click here to listen with your own player (launches your MP3 player)
URKK Gnd/Twr/App Audio Archives
FacilityFrequency
Krasnodar Approach129.600
Krasnodar Ground119.000
Krasnodar Radar121.300
Krasnodar Tower118.200


NOTICE

Unauthorized use prohibited. See LiveATC.net Terms of Service


Find LiveATC Audio Streams


Airport/ARTCC Code

Frequency
(e.g., 124.400, 128.75)
Site-wide search

Browse LiveATC Feeds
LiveATC Coverage Map
Top 50 LiveATC Feeds
Bad Weather Areas

LiveATC FAQ
Offer a LiveATC Feed
Contact LiveATC.net
Press Inquiries

LiveATC on iPhone
LiveATC on Android

LiveATC Mobile
(Mobile browser)

ATC Audio Archives
Interesting Recordings

LiveATC Forums


Home Page
About LiveATC.net
Make a Donation
LiveATC Bookstore

Terms of Use
Privacy Policy

ATC/Radar Sites
U.S. ARTCC Freqs
Canadian Air Freqs

AIRMETs/SIGMETs

FAA Airport Status
Nat'l Airspace Status
Arrival Demand Charts


Server Software By:
Icecast.org
Liquidsoap

Please make a donation to help us keep growing!